Malaysia Virtual Airlines Airport Information Service

Kota Kinabalu

ICAO: WBKK Country: Malaysia
Latitude: 5.93721 Longitude: 116.051
Latest Arrival : MH2122 (WBKW-WBKK) Latest Departure : MH2649 (WBKK-WMKK)


WX CaptureLIVE
Data provided by noaa.gov | Fetched at 05:10:18

METAR : WBKK 290430Z VRB04KT 9999 FEW013 30/24 Q1009 NOSIG

TAF : WBKK 282300Z 2900/3000 10005KT 9000 -RA FEW014 BECMG 2901/2903 28005KT 9999 NSW PROB30 TEMPO 2908/2912 5000 TSRA FEW010 FEW016CB SCT030


Runway Data for WBKK
Data provided by openaviationdata.com

Runway ID Mag Var Hdg Length Elevation Surface ILS Freq ILS Id ILS Slope
2 0 22° 9829 ft 10 ft Asphalt 110.3 IKKS 3
20 0 202° 9829 ft 10 ft Asphalt -- -- --

Kota Kinabalu, Malaysia
Use only for reference purposes



Not for navigational purposes.